sensor_id;sensor_type;location;lat;lon;timestamp;temperature;humidity
68719;DHT22;55696;52.138;5.444;2023-04-03T00:00:33;8.40;58.70
68719;DHT22;55696;52.138;5.444;2023-04-03T00:03:01;8.50;59.30
68719;DHT22;55696;52.138;5.444;2023-04-03T00:05:28;8.50;58.40
68719;DHT22;55696;52.138;5.444;2023-04-03T00:07:54;8.40;58.60
68719;DHT22;55696;52.138;5.444;2023-04-03T00:10:22;8.50;58.80
68719;DHT22;55696;52.138;5.444;2023-04-03T00:12:49;8.40;59.40
68719;DHT22;55696;52.138;5.444;2023-04-03T00:15:16;8.30;59.00
68719;DHT22;55696;52.138;5.444;2023-04-03T00:17:43;8.40;58.90
68719;DHT22;55696;52.138;5.444;2023-04-03T00:20:09;8.40;58.80
68719;DHT22;55696;52.138;5.444;2023-04-03T00:22:36;8.40;59.00
68719;DHT22;55696;52.138;5.444;2023-04-03T00:25:04;8.40;58.90
68719;DHT22;55696;52.138;5.444;2023-04-03T00:27:31;8.30;59.50
68719;DHT22;55696;52.138;5.444;2023-04-03T00:29:57;8.30;58.90
68719;DHT22;55696;52.138;5.444;2023-04-03T00:32:24;8.20;58.90
68719;DHT22;55696;52.138;5.444;2023-04-03T00:34:51;8.30;59.10
68719;DHT22;55696;52.138;5.444;2023-04-03T00:37:18;8.20;59.20
68719;DHT22;55696;52.138;5.444;2023-04-03T00:39:45;8.20;59.20
68719;DHT22;55696;52.138;5.444;2023-04-03T00:42:12;8.20;59.20
68719;DHT22;55696;52.138;5.444;2023-04-03T00:47:09;8.20;59.30
68719;DHT22;55696;52.138;5.444;2023-04-03T00:49:37;8.10;60.70
68719;DHT22;55696;52.138;5.444;2023-04-03T00:52:09;8.10;60.20
68719;DHT22;55696;52.138;5.444;2023-04-03T00:54:40;8.00;61.40
68719;DHT22;55696;52.138;5.444;2023-04-03T00:57:09;8.10;61.30
68719;DHT22;55696;52.138;5.444;2023-04-03T00:59:43;8.00;60.50
68719;DHT22;55696;52.138;5.444;2023-04-03T01:02:12;8.00;61.90
68719;DHT22;55696;52.138;5.444;2023-04-03T01:04:41;8.00;59.90
68719;DHT22;55696;52.138;5.444;2023-04-03T01:07:14;7.80;61.20
68719;DHT22;55696;52.138;5.444;2023-04-03T01:09:43;8.00;61.80
68719;DHT22;55696;52.138;5.444;2023-04-03T01:14:51;7.90;62.70
68719;DHT22;55696;52.138;5.444;2023-04-03T01:25:48;7.90;63.30
68719;DHT22;55696;52.138;5.444;2023-04-03T01:28:19;7.90;62.00
68719;DHT22;55696;52.138;5.444;2023-04-03T01:30:56;7.80;62.20
68719;DHT22;55696;52.138;5.444;2023-04-03T01:33:24;7.90;60.00
68719;DHT22;55696;52.138;5.444;2023-04-03T01:35:51;7.70;60.80
68719;DHT22;55696;52.138;5.444;2023-04-03T01:38:18;7.80;61.00
68719;DHT22;55696;52.138;5.444;2023-04-03T01:40:45;7.80;61.00
68719;DHT22;55696;52.138;5.444;2023-04-03T01:43:12;7.60;61.00
68719;DHT22;55696;52.138;5.444;2023-04-03T01:45:39;7.70;61.30
68719;DHT22;55696;52.138;5.444;2023-04-03T01:48:06;7.70;61.50
68719;DHT22;55696;52.138;5.444;2023-04-03T01:50:32;7.60;61.80
68719;DHT22;55696;52.138;5.444;2023-04-03T01:53:00;7.60;61.90
68719;DHT22;55696;52.138;5.444;2023-04-03T01:55:26;7.50;62.40
68719;DHT22;55696;52.138;5.444;2023-04-03T01:57:53;7.50;62.80
68719;DHT22;55696;52.138;5.444;2023-04-03T02:00:20;7.50;62.80
68719;DHT22;55696;52.138;5.444;2023-04-03T02:02:47;7.60;63.10
68719;DHT22;55696;52.138;5.444;2023-04-03T02:05:14;7.50;62.90
68719;DHT22;55696;52.138;5.444;2023-04-03T02:07:41;7.50;63.40
68719;DHT22;55696;52.138;5.444;2023-04-03T02:10:08;7.10;63.00
68719;DHT22;55696;52.138;5.444;2023-04-03T02:12:35;7.50;63.60
68719;DHT22;55696;52.138;5.444;2023-04-03T02:15:02;7.50;63.30
68719;DHT22;55696;52.138;5.444;2023-04-03T02:17:28;7.40;63.40
68719;DHT22;55696;52.138;5.444;2023-04-03T02:19:55;7.40;63.40
68719;DHT22;55696;52.138;5.444;2023-04-03T02:22:23;7.40;63.80
68719;DHT22;55696;52.138;5.444;2023-04-03T02:24:50;7.40;63.70
68719;DHT22;55696;52.138;5.444;2023-04-03T02:27:19;7.40;63.80
68719;DHT22;55696;52.138;5.444;2023-04-03T02:29:47;7.50;64.00
68719;DHT22;55696;52.138;5.444;2023-04-03T02:32:14;7.40;63.60
68719;DHT22;55696;52.138;5.444;2023-04-03T02:34:41;7.30;63.70
68719;DHT22;55696;52.138;5.444;2023-04-03T02:37:10;7.40;63.80
68719;DHT22;55696;52.138;5.444;2023-04-03T02:39:37;7.30;65.10
68719;DHT22;55696;52.138;5.444;2023-04-03T02:42:04;8.10;64.50
68719;DHT22;55696;52.138;5.444;2023-04-03T02:44:31;7.20;64.30
68719;DHT22;55696;52.138;5.444;2023-04-03T02:46:57;7.20;64.30
68719;DHT22;55696;52.138;5.444;2023-04-03T02:49:24;7.10;64.50
68719;DHT22;55696;52.138;5.444;2023-04-03T02:51:51;7.00;64.50
68719;DHT22;55696;52.138;5.444;2023-04-03T02:54:18;6.90;64.70
68719;DHT22;55696;52.138;5.444;2023-04-03T02:56:50;6.80;65.00
68719;DHT22;55696;52.138;5.444;2023-04-03T02:59:17;6.70;65.30
68719;DHT22;55696;52.138;5.444;2023-04-03T03:01:44;6.70;65.40
68719;DHT22;55696;52.138;5.444;2023-04-03T03:04:10;6.60;65.50
68719;DHT22;55696;52.138;5.444;2023-04-03T03:06:37;6.60;65.90
68719;DHT22;55696;52.138;5.444;2023-04-03T03:09:04;6.60;66.00
68719;DHT22;55696;52.138;5.444;2023-04-03T03:11:32;6.50;66.10
68719;DHT22;55696;52.138;5.444;2023-04-03T03:13:58;6.40;66.40
68719;DHT22;55696;52.138;5.444;2023-04-03T03:16:25;6.40;66.20
68719;DHT22;55696;52.138;5.444;2023-04-03T03:18:53;6.40;66.30
68719;DHT22;55696;52.138;5.444;2023-04-03T03:21:20;6.40;66.50
68719;DHT22;55696;52.138;5.444;2023-04-03T03:23:46;6.40;66.70
68719;DHT22;55696;52.138;5.444;2023-04-03T03:26:13;6.30;66.80
68719;DHT22;55696;52.138;5.444;2023-04-03T03:28:40;6.30;66.70
68719;DHT22;55696;52.138;5.444;2023-04-03T03:31:09;6.30;66.80
68719;DHT22;55696;52.138;5.444;2023-04-03T03:33:38;6.20;68.50
68719;DHT22;55696;52.138;5.444;2023-04-03T03:36:05;6.20;67.70
68719;DHT22;55696;52.138;5.444;2023-04-03T03:38:32;6.10;67.70
68719;DHT22;55696;52.138;5.444;2023-04-03T03:41:00;6.10;67.40
68719;DHT22;55696;52.138;5.444;2023-04-03T03:43:28;6.00;67.60
68719;DHT22;55696;52.138;5.444;2023-04-03T03:45:55;6.10;68.10
68719;DHT22;55696;52.138;5.444;2023-04-03T03:48:23;6.00;68.20
68719;DHT22;55696;52.138;5.444;2023-04-03T03:50:50;6.00;68.10
68719;DHT22;55696;52.138;5.444;2023-04-03T03:53:20;5.90;68.20
68719;DHT22;55696;52.138;5.444;2023-04-03T03:55:50;5.90;68.20
68719;DHT22;55696;52.138;5.444;2023-04-03T03:58:19;5.80;68.10
68719;DHT22;55696;52.138;5.444;2023-04-03T04:00:46;5.90;68.40
68719;DHT22;55696;52.138;5.444;2023-04-03T04:03:13;5.90;68.90
68719;DHT22;55696;52.138;5.444;2023-04-03T04:05:42;6.00;68.50
68719;DHT22;55696;52.138;5.444;2023-04-03T04:08:09;6.00;68.10
68719;DHT22;55696;52.138;5.444;2023-04-03T04:10:37;5.90;68.60
68719;DHT22;55696;52.138;5.444;2023-04-03T04:13:06;5.90;69.80
68719;DHT22;55696;52.138;5.444;2023-04-03T04:15:33;5.90;68.70
68719;DHT22;55696;52.138;5.444;2023-04-03T04:18:01;6.00;68.70
68719;DHT22;55696;52.138;5.444;2023-04-03T04:20:28;6.20;68.40
68719;DHT22;55696;52.138;5.444;2023-04-03T04:22:56;6.20;68.30
68719;DHT22;55696;52.138;5.444;2023-04-03T04:25:24;6.20;68.10
68719;DHT22;55696;52.138;5.444;2023-04-03T04:27:51;6.20;68.00
68719;DHT22;55696;52.138;5.444;2023-04-03T04:30:18;6.10;68.00
68719;DHT22;55696;52.138;5.444;2023-04-03T04:32:47;6.10;68.40
68719;DHT22;55696;52.138;5.444;2023-04-03T04:35:14;6.00;68.40
68719;DHT22;55696;52.138;5.444;2023-04-03T04:37:44;5.70;69.20
68719;DHT22;55696;52.138;5.444;2023-04-03T04:40:12;5.90;68.60
68719;DHT22;55696;52.138;5.444;2023-04-03T04:42:39;6.00;69.20
68719;DHT22;55696;52.138;5.444;2023-04-03T04:45:07;5.90;69.10
68719;DHT22;55696;52.138;5.444;2023-04-03T04:47:35;5.90;68.70
68719;DHT22;55696;52.138;5.444;2023-04-03T04:50:02;5.80;68.90
68719;DHT22;55696;52.138;5.444;2023-04-03T04:52:31;5.90;69.50
68719;DHT22;55696;52.138;5.444;2023-04-03T04:54:58;5.90;69.30
68719;DHT22;55696;52.138;5.444;2023-04-03T04:57:24;5.90;69.00
68719;DHT22;55696;52.138;5.444;2023-04-03T04:59:52;5.90;69.00
68719;DHT22;55696;52.138;5.444;2023-04-03T05:02:19;5.90;69.30
68719;DHT22;55696;52.138;5.444;2023-04-03T05:04:46;5.90;69.30
68719;DHT22;55696;52.138;5.444;2023-04-03T05:07:19;5.90;69.00
68719;DHT22;55696;52.138;5.444;2023-04-03T05:09:45;5.90;69.00
68719;DHT22;55696;52.138;5.444;2023-04-03T05:12:14;5.90;69.10
68719;DHT22;55696;52.138;5.444;2023-04-03T05:14:47;5.80;69.10
68719;DHT22;55696;52.138;5.444;2023-04-03T05:17:15;6.00;69.20
68719;DHT22;55696;52.138;5.444;2023-04-03T05:19:47;6.10;68.90
68719;DHT22;55696;52.138;5.444;2023-04-03T05:22:14;6.00;68.80
68719;DHT22;55696;52.138;5.444;2023-04-03T05:24:41;6.10;68.90
68719;DHT22;55696;52.138;5.444;2023-04-03T05:27:08;6.10;68.90
68719;DHT22;55696;52.138;5.444;2023-04-03T05:29:38;6.10;68.90
68719;DHT22;55696;52.138;5.444;2023-04-03T05:32:05;6.10;69.00
68719;DHT22;55696;52.138;5.444;2023-04-03T05:34:32;6.20;68.90
68719;DHT22;55696;52.138;5.444;2023-04-03T05:37:00;6.30;68.80
68719;DHT22;55696;52.138;5.444;2023-04-03T05:39:27;6.30;68.80
68719;DHT22;55696;52.138;5.444;2023-04-03T05:41:55;6.40;68.70
68719;DHT22;55696;52.138;5.444;2023-04-03T05:44:22;6.40;68.60
68719;DHT22;55696;52.138;5.444;2023-04-03T05:46:50;6.50;68.20
68719;DHT22;55696;52.138;5.444;2023-04-03T05:49:17;6.50;68.30
68719;DHT22;55696;52.138;5.444;2023-04-03T05:51:44;6.40;68.10
68719;DHT22;55696;52.138;5.444;2023-04-03T05:54:27;6.60;68.40
68719;DHT22;55696;52.138;5.444;2023-04-03T05:57:07;6.60;69.10
68719;DHT22;55696;52.138;5.444;2023-04-03T05:59:35;6.70;67.70
68719;DHT22;55696;52.138;5.444;2023-04-03T06:02:01;6.70;67.70
68719;DHT22;55696;52.138;5.444;2023-04-03T06:04:29;6.70;67.30
68719;DHT22;55696;52.138;5.444;2023-04-03T06:06:57;6.80;67.50
68719;DHT22;55696;52.138;5.444;2023-04-03T06:09:27;6.90;68.60
68719;DHT22;55696;52.138;5.444;2023-04-03T06:11:56;6.80;68.80
68719;DHT22;55696;52.138;5.444;2023-04-03T06:14:26;7.00;68.00
68719;DHT22;55696;52.138;5.444;2023-04-03T06:16:53;7.00;66.90
68719;DHT22;55696;52.138;5.444;2023-04-03T06:19:20;7.10;66.50
68719;DHT22;55696;52.138;5.444;2023-04-03T06:21:51;7.00;66.00
68719;DHT22;55696;52.138;5.444;2023-04-03T06:24:18;7.20;66.20
68719;DHT22;55696;52.138;5.444;2023-04-03T06:26:46;7.20;66.80
68719;DHT22;55696;52.138;5.444;2023-04-03T06:29:14;7.30;66.20
68719;DHT22;55696;52.138;5.444;2023-04-03T06:31:41;7.40;66.10
68719;DHT22;55696;52.138;5.444;2023-04-03T06:34:07;7.50;65.50
68719;DHT22;55696;52.138;5.444;2023-04-03T06:36:35;7.40;65.30
68719;DHT22;55696;52.138;5.444;2023-04-03T06:39:03;7.60;65.40
68719;DHT22;55696;52.138;5.444;2023-04-03T06:41:30;7.60;66.10
68719;DHT22;55696;52.138;5.444;2023-04-03T06:43:57;7.60;66.20
68719;DHT22;55696;52.138;5.444;2023-04-03T06:46:26;7.80;65.30
68719;DHT22;55696;52.138;5.444;2023-04-03T06:48:53;7.80;66.50
68719;DHT22;55696;52.138;5.444;2023-04-03T06:51:25;7.80;65.50
68719;DHT22;55696;52.138;5.444;2023-04-03T06:53:55;7.90;65.50
68719;DHT22;55696;52.138;5.444;2023-04-03T06:56:22;7.90;65.90
68719;DHT22;55696;52.138;5.444;2023-04-03T06:58:49;7.90;65.30
68719;DHT22;55696;52.138;5.444;2023-04-03T07:01:17;7.90;64.90
68719;DHT22;55696;52.138;5.444;2023-04-03T07:03:46;7.90;65.00
68719;DHT22;55696;52.138;5.444;2023-04-03T07:06:15;7.90;65.00
68719;DHT22;55696;52.138;5.444;2023-04-03T07:08:42;7.90;65.10
68719;DHT22;55696;52.138;5.444;2023-04-03T07:11:11;8.00;64.80
68719;DHT22;55696;52.138;5.444;2023-04-03T07:13:38;8.10;64.90
68719;DHT22;55696;52.138;5.444;2023-04-03T07:16:05;8.20;64.20
68719;DHT22;55696;52.138;5.444;2023-04-03T07:18:33;8.30;64.70
68719;DHT22;55696;52.138;5.444;2023-04-03T07:21:00;8.40;63.80
68719;DHT22;55696;52.138;5.444;2023-04-03T07:23:27;8.50;63.90
68719;DHT22;55696;52.138;5.444;2023-04-03T07:25:54;8.50;63.50
68719;DHT22;55696;52.138;5.444;2023-04-03T07:28:22;8.80;63.20
68719;DHT22;55696;52.138;5.444;2023-04-03T07:30:51;8.50;63.00
68719;DHT22;55696;52.138;5.444;2023-04-03T07:33:19;8.50;63.70
68719;DHT22;55696;52.138;5.444;2023-04-03T07:35:47;8.60;63.00
68719;DHT22;55696;52.138;5.444;2023-04-03T07:38:14;8.60;62.60
68719;DHT22;55696;52.138;5.444;2023-04-03T07:40:49;10.30;63.40
68719;DHT22;55696;52.138;5.444;2023-04-03T07:43:18;8.70;63.90
68719;DHT22;55696;52.138;5.444;2023-04-03T07:45:47;8.70;62.50
68719;DHT22;55696;52.138;5.444;2023-04-03T07:48:18;8.90;62.00
68719;DHT22;55696;52.138;5.444;2023-04-03T07:50:44;9.30;62.80
68719;DHT22;55696;52.138;5.444;2023-04-03T07:53:11;8.90;61.00
68719;DHT22;55696;52.138;5.444;2023-04-03T07:55:38;9.00;60.90
68719;DHT22;55696;52.138;5.444;2023-04-03T07:58:16;9.20;60.70
68719;DHT22;55696;52.138;5.444;2023-04-03T08:00:45;9.00;62.10
68719;DHT22;55696;52.138;5.444;2023-04-03T08:03:13;9.00;61.30
68719;DHT22;55696;52.138;5.444;2023-04-03T08:05:42;9.20;60.90
68719;DHT22;55696;52.138;5.444;2023-04-03T08:08:10;9.20;60.50
68719;DHT22;55696;52.138;5.444;2023-04-03T08:10:38;9.20;60.30
68719;DHT22;55696;52.138;5.444;2023-04-03T08:13:06;9.20;59.20
68719;DHT22;55696;52.138;5.444;2023-04-03T08:15:34;9.30;59.40
68719;DHT22;55696;52.138;5.444;2023-04-03T08:18:02;9.30;59.10
68719;DHT22;55696;52.138;5.444;2023-04-03T08:20:30;9.30;58.30
68719;DHT22;55696;52.138;5.444;2023-04-03T08:22:56;9.30;58.20
68719;DHT22;55696;52.138;5.444;2023-04-03T08:25:23;9.70;58.30
68719;DHT22;55696;52.138;5.444;2023-04-03T08:27:50;9.40;57.90
68719;DHT22;55696;52.138;5.444;2023-04-03T08:30:17;9.50;57.70
68719;DHT22;55696;52.138;5.444;2023-04-03T08:32:44;9.60;57.30
68719;DHT22;55696;52.138;5.444;2023-04-03T08:35:11;9.60;57.10
68719;DHT22;55696;52.138;5.444;2023-04-03T08:37:39;9.60;56.70
68719;DHT22;55696;52.138;5.444;2023-04-03T08:40:10;9.70;57.40
68719;DHT22;55696;52.138;5.444;2023-04-03T08:43:03;9.80;57.10
68719;DHT22;55696;52.138;5.444;2023-04-03T08:45:52;9.90;57.90
68719;DHT22;55696;52.138;5.444;2023-04-03T08:48:27;9.90;57.20
68719;DHT22;55696;52.138;5.444;2023-04-03T08:51:02;10.00;55.20
68719;DHT22;55696;52.138;5.444;2023-04-03T08:53:34;9.90;55.40
68719;DHT22;55696;52.138;5.444;2023-04-03T08:56:08;10.10;55.20
68719;DHT22;55696;52.138;5.444;2023-04-03T08:58:45;10.10;54.60
68719;DHT22;55696;52.138;5.444;2023-04-03T09:01:21;10.10;54.20
68719;DHT22;55696;52.138;5.444;2023-04-03T09:03:49;10.20;53.50
68719;DHT22;55696;52.138;5.444;2023-04-03T09:06:29;10.30;51.00
68719;DHT22;55696;52.138;5.444;2023-04-03T09:12:11;10.50;51.30
68719;DHT22;55696;52.138;5.444;2023-04-03T09:22:47;10.50;49.30
68719;DHT22;55696;52.138;5.444;2023-04-03T09:25:23;10.60;47.00
68719;DHT22;55696;52.138;5.444;2023-04-03T09:27:53;10.60;48.20
68719;DHT22;55696;52.138;5.444;2023-04-03T09:30:24;10.60;46.90
68719;DHT22;55696;52.138;5.444;2023-04-03T09:32:54;10.80;48.00
68719;DHT22;55696;52.138;5.444;2023-04-03T09:35:25;10.90;46.70
68719;DHT22;55696;52.138;5.444;2023-04-03T09:40:46;11.80;46.80
68719;DHT22;55696;52.138;5.444;2023-04-03T09:45:44;10.80;45.90
68719;DHT22;55696;52.138;5.444;2023-04-03T09:56:09;11.10;45.50
68719;DHT22;55696;52.138;5.444;2023-04-03T09:58:51;11.10;44.20
68719;DHT22;55696;52.138;5.444;2023-04-03T10:01:31;11.20;41.90
68719;DHT22;55696;52.138;5.444;2023-04-03T10:06:39;11.20;43.70
68719;DHT22;55696;52.138;5.444;2023-04-03T10:09:21;11.30;43.40
68719;DHT22;55696;52.138;5.444;2023-04-03T10:14:39;11.40;43.70
68719;DHT22;55696;52.138;5.444;2023-04-03T10:17:30;11.30;42.40
68719;DHT22;55696;52.138;5.444;2023-04-03T10:41:34;11.80;39.50
68719;DHT22;55696;52.138;5.444;2023-04-03T10:44:20;11.80;41.60
68719;DHT22;55696;52.138;5.444;2023-04-03T10:52:32;11.80;38.10
68719;DHT22;55696;52.138;5.444;2023-04-03T10:57:36;12.00;38.50
68719;DHT22;55696;52.138;5.444;2023-04-03T11:00:17;12.00;40.20
68719;DHT22;55696;52.138;5.444;2023-04-03T11:05:32;12.40;41.20
68719;DHT22;55696;52.138;5.444;2023-04-03T11:08:24;12.80;41.50
68719;DHT22;55696;52.138;5.444;2023-04-03T11:10:57;12.30;41.70
68719;DHT22;55696;52.138;5.444;2023-04-03T11:13:41;12.30;40.60
68719;DHT22;55696;52.138;5.444;2023-04-03T11:16:15;12.40;41.40
68719;DHT22;55696;52.138;5.444;2023-04-03T11:19:03;12.60;41.50
68719;DHT22;55696;52.138;5.444;2023-04-03T11:21:39;12.70;42.00
68719;DHT22;55696;52.138;5.444;2023-04-03T11:24:17;12.90;41.20
68719;DHT22;55696;52.138;5.444;2023-04-03T11:26:46;12.80;41.40
68719;DHT22;55696;52.138;5.444;2023-04-03T11:29:19;12.90;40.10
68719;DHT22;55696;52.138;5.444;2023-04-03T11:32:31;13.00;40.90
68719;DHT22;55696;52.138;5.444;2023-04-03T11:35:01;13.10;40.30
68719;DHT22;55696;52.138;5.444;2023-04-03T11:40:19;13.10;39.70
68719;DHT22;55696;52.138;5.444;2023-04-03T11:42:55;13.20;40.30
68719;DHT22;55696;52.138;5.444;2023-04-03T11:45:36;12.80;39.70
68719;DHT22;55696;52.138;5.444;2023-04-03T11:51:40;14.10;40.70
68719;DHT22;55696;52.138;5.444;2023-04-03T11:53:48;13.40;39.20
68719;DHT22;55696;52.138;5.444;2023-04-03T11:59:16;13.60;39.40
68719;DHT22;55696;52.138;5.444;2023-04-03T12:01:47;13.50;39.50
68719;DHT22;55696;52.138;5.444;2023-04-03T12:04:16;13.60;38.40
68719;DHT22;55696;52.138;5.444;2023-04-03T12:09:54;13.70;39.30
68719;DHT22;55696;52.138;5.444;2023-04-03T12:12:33;13.90;38.20
68719;DHT22;55696;52.138;5.444;2023-04-03T12:18:31;14.00;38.30
68719;DHT22;55696;52.138;5.444;2023-04-03T12:20:58;14.30;38.80
68719;DHT22;55696;52.138;5.444;2023-04-03T12:23:37;14.40;36.90
68719;DHT22;55696;52.138;5.444;2023-04-03T12:26:28;14.40;38.20
68719;DHT22;55696;52.138;5.444;2023-04-03T12:29:27;15.40;38.20
68719;DHT22;55696;52.138;5.444;2023-04-03T12:37:57;15.20;34.10
68719;DHT22;55696;52.138;5.444;2023-04-03T12:40:50;15.20;35.70
68719;DHT22;55696;52.138;5.444;2023-04-03T12:46:15;15.10;35.80
68719;DHT22;55696;52.138;5.444;2023-04-03T12:48:56;15.20;35.70
68719;DHT22;55696;52.138;5.444;2023-04-03T12:54:04;15.30;36.40
68719;DHT22;55696;52.138;5.444;2023-04-03T12:56:39;15.50;35.70
68719;DHT22;55696;52.138;5.444;2023-04-03T13:01:54;15.70;35.60
68719;DHT22;55696;52.138;5.444;2023-04-03T13:04:21;15.80;35.70
68719;DHT22;55696;52.138;5.444;2023-04-03T13:06:49;15.70;33.30
68719;DHT22;55696;52.138;5.444;2023-04-03T13:11:50;15.90;34.90
68719;DHT22;55696;52.138;5.444;2023-04-03T13:14:21;16.10;33.80
68719;DHT22;55696;52.138;5.444;2023-04-03T13:16:59;16.20;34.20
68719;DHT22;55696;52.138;5.444;2023-04-03T13:19:27;16.30;35.20
68719;DHT22;55696;52.138;5.444;2023-04-03T13:22:02;16.60;33.50
68719;DHT22;55696;52.138;5.444;2023-04-03T13:24:34;16.70;34.20
68719;DHT22;55696;52.138;5.444;2023-04-03T13:27:02;16.80;33.30
68719;DHT22;55696;52.138;5.444;2023-04-03T13:29:32;16.80;31.40
68719;DHT22;55696;52.138;5.444;2023-04-03T13:32:00;16.70;32.40
68719;DHT22;55696;52.138;5.444;2023-04-03T13:34:36;16.90;32.00
68719;DHT22;55696;52.138;5.444;2023-04-03T13:37:04;16.90;31.60
68719;DHT22;55696;52.138;5.444;2023-04-03T13:39:38;17.10;31.90
68719;DHT22;55696;52.138;5.444;2023-04-03T13:42:24;17.70;33.00
68719;DHT22;55696;52.138;5.444;2023-04-03T13:45:10;17.40;33.00
68719;DHT22;55696;52.138;5.444;2023-04-03T13:47:42;17.60;32.30
68719;DHT22;55696;52.138;5.444;2023-04-03T13:50:17;17.50;31.40
68719;DHT22;55696;52.138;5.444;2023-04-03T13:52:53;17.60;31.60
68719;DHT22;55696;52.138;5.444;2023-04-03T13:55:35;17.80;31.00
68719;DHT22;55696;52.138;5.444;2023-04-03T13:58:21;18.80;32.00
68719;DHT22;55696;52.138;5.444;2023-04-03T14:00:50;17.80;32.00
68719;DHT22;55696;52.138;5.444;2023-04-03T14:03:29;17.90;29.20
68719;DHT22;55696;52.138;5.444;2023-04-03T14:05:56;18.00;30.10
68719;DHT22;55696;52.138;5.444;2023-04-03T14:08:23;18.00;28.80
68719;DHT22;55696;52.138;5.444;2023-04-03T14:11:20;18.00;28.40
68719;DHT22;55696;52.138;5.444;2023-04-03T14:13:48;18.10;30.00
68719;DHT22;55696;52.138;5.444;2023-04-03T14:16:22;18.30;28.60
68719;DHT22;55696;52.138;5.444;2023-04-03T14:18:52;18.80;29.80
68719;DHT22;55696;52.138;5.444;2023-04-03T14:21:20;18.50;28.30
68719;DHT22;55696;52.138;5.444;2023-04-03T14:23:48;18.40;28.70
68719;DHT22;55696;52.138;5.444;2023-04-03T14:26:21;18.50;28.70
68719;DHT22;55696;52.138;5.444;2023-04-03T14:28:51;18.90;29.40
68719;DHT22;55696;52.138;5.444;2023-04-03T14:31:19;19.10;29.10
68719;DHT22;55696;52.138;5.444;2023-04-03T14:33:47;19.00;28.40
68719;DHT22;55696;52.138;5.444;2023-04-03T14:36:20;19.10;28.10
68719;DHT22;55696;52.138;5.444;2023-04-03T14:38:48;19.10;28.90
68719;DHT22;55696;52.138;5.444;2023-04-03T14:41:18;19.20;27.80
68719;DHT22;55696;52.138;5.444;2023-04-03T14:43:46;19.10;28.10
68719;DHT22;55696;52.138;5.444;2023-04-03T14:46:38;19.60;28.30
68719;DHT22;55696;52.138;5.444;2023-04-03T14:49:24;19.10;28.00
68719;DHT22;55696;52.138;5.444;2023-04-03T14:51:51;19.30;28.10
68719;DHT22;55696;52.138;5.444;2023-04-03T14:54:21;18.90;27.50
68719;DHT22;55696;52.138;5.444;2023-04-03T14:56:52;19.00;27.60
68719;DHT22;55696;52.138;5.444;2023-04-03T14:59:19;18.80;27.50
68719;DHT22;55696;52.138;5.444;2023-04-03T15:01:48;19.00;27.70
68719;DHT22;55696;52.138;5.444;2023-04-03T15:04:17;18.80;27.50
68719;DHT22;55696;52.138;5.444;2023-04-03T15:06:46;19.70;28.30
68719;DHT22;55696;52.138;5.444;2023-04-03T15:09:22;19.60;28.10
68719;DHT22;55696;52.138;5.444;2023-04-03T15:11:50;18.90;28.20
68719;DHT22;55696;52.138;5.444;2023-04-03T15:14:18;18.70;27.80
68719;DHT22;55696;52.138;5.444;2023-04-03T15:17:04;18.70;27.90
68719;DHT22;55696;52.138;5.444;2023-04-03T15:19:37;18.70;28.00
68719;DHT22;55696;52.138;5.444;2023-04-03T15:22:04;18.70;28.80
68719;DHT22;55696;52.138;5.444;2023-04-03T15:24:31;18.80;28.30
68719;DHT22;55696;52.138;5.444;2023-04-03T15:26:59;18.90;28.00
68719;DHT22;55696;52.138;5.444;2023-04-03T15:29:26;18.90;27.90
68719;DHT22;55696;52.138;5.444;2023-04-03T15:31:53;18.70;27.70
68719;DHT22;55696;52.138;5.444;2023-04-03T15:34:20;19.00;27.80
68719;DHT22;55696;52.138;5.444;2023-04-03T15:36:49;18.90;27.70
68719;DHT22;55696;52.138;5.444;2023-04-03T15:39:16;19.10;27.50
68719;DHT22;55696;52.138;5.444;2023-04-03T15:41:44;19.10;27.50
68719;DHT22;55696;52.138;5.444;2023-04-03T15:44:12;19.10;27.80
68719;DHT22;55696;52.138;5.444;2023-04-03T15:46:39;19.20;27.90
68719;DHT22;55696;52.138;5.444;2023-04-03T15:49:07;19.70;28.00
68719;DHT22;55696;52.138;5.444;2023-04-03T15:51:34;19.20;27.80
68719;DHT22;55696;52.138;5.444;2023-04-03T15:54:01;19.10;28.10
68719;DHT22;55696;52.138;5.444;2023-04-03T15:56:28;19.30;28.30
68719;DHT22;55696;52.138;5.444;2023-04-03T15:58:55;18.90;28.40
68719;DHT22;55696;52.138;5.444;2023-04-03T16:01:22;19.20;28.40
68719;DHT22;55696;52.138;5.444;2023-04-03T16:03:48;19.10;28.40
68719;DHT22;55696;52.138;5.444;2023-04-03T16:06:16;19.10;28.60
68719;DHT22;55696;52.138;5.444;2023-04-03T16:08:46;20.40;29.20
68719;DHT22;55696;52.138;5.444;2023-04-03T16:11:14;19.10;29.10
68719;DHT22;55696;52.138;5.444;2023-04-03T16:13:40;19.10;29.20
68719;DHT22;55696;52.138;5.444;2023-04-03T16:16:09;19.00;29.10
68719;DHT22;55696;52.138;5.444;2023-04-03T16:18:36;18.90;29.20
68719;DHT22;55696;52.138;5.444;2023-04-03T16:21:03;18.90;29.20
68719;DHT22;55696;52.138;5.444;2023-04-03T16:23:30;18.80;29.30
68719;DHT22;55696;52.138;5.444;2023-04-03T16:25:57;18.70;29.00
68719;DHT22;55696;52.138;5.444;2023-04-03T16:28:24;20.30;30.00
68719;DHT22;55696;52.138;5.444;2023-04-03T16:30:51;18.30;29.40
68719;DHT22;55696;52.138;5.444;2023-04-03T16:33:18;19.10;29.90
68719;DHT22;55696;52.138;5.444;2023-04-03T16:35:49;18.40;29.70
68719;DHT22;55696;52.138;5.444;2023-04-03T16:38:16;18.30;29.70
68719;DHT22;55696;52.138;5.444;2023-04-03T16:40:45;18.20;29.70
68719;DHT22;55696;52.138;5.444;2023-04-03T16:43:12;17.90;29.70
68719;DHT22;55696;52.138;5.444;2023-04-03T16:45:39;18.00;29.50
68719;DHT22;55696;52.138;5.444;2023-04-03T16:48:06;17.90;29.80
68719;DHT22;55696;52.138;5.444;2023-04-03T16:50:33;17.80;29.80
68719;DHT22;55696;52.138;5.444;2023-04-03T16:53:00;17.90;29.90
68719;DHT22;55696;52.138;5.444;2023-04-03T16:55:29;17.90;29.90
68719;DHT22;55696;52.138;5.444;2023-04-03T16:57:56;17.50;29.80
68719;DHT22;55696;52.138;5.444;2023-04-03T17:00:23;17.80;30.00
68719;DHT22;55696;52.138;5.444;2023-04-03T17:02:50;17.50;29.90
68719;DHT22;55696;52.138;5.444;2023-04-03T17:05:17;17.20;30.00
68719;DHT22;55696;52.138;5.444;2023-04-03T17:07:43;17.20;30.10
68719;DHT22;55696;52.138;5.444;2023-04-03T17:10:11;17.00;30.40
68719;DHT22;55696;52.138;5.444;2023-04-03T17:12:38;16.80;30.90
68719;DHT22;55696;52.138;5.444;2023-04-03T17:15:06;16.60;31.20
68719;DHT22;55696;52.138;5.444;2023-04-03T17:17:33;16.40;31.80
68719;DHT22;55696;52.138;5.444;2023-04-03T17:20:01;16.20;32.20
68719;DHT22;55696;52.138;5.444;2023-04-03T17:22:29;15.90;32.10
68719;DHT22;55696;52.138;5.444;2023-04-03T17:24:56;15.80;32.80
68719;DHT22;55696;52.138;5.444;2023-04-03T17:27:23;15.50;33.30
68719;DHT22;55696;52.138;5.444;2023-04-03T17:29:50;15.30;33.80
68719;DHT22;55696;52.138;5.444;2023-04-03T17:32:17;16.00;34.70
68719;DHT22;55696;52.138;5.444;2023-04-03T17:34:45;14.90;34.60
68719;DHT22;55696;52.138;5.444;2023-04-03T17:37:12;14.70;36.50
68719;DHT22;55696;52.138;5.444;2023-04-03T17:39:39;14.50;35.80
68719;DHT22;55696;52.138;5.444;2023-04-03T17:42:06;14.50;35.90
68719;DHT22;55696;52.138;5.444;2023-04-03T17:44:33;14.40;36.30